Terminal Aerodrome Forecast
Issued by NWS St Louis, MO

Home | Current Version | Previous Version | Text Only | Print | Product List | Glossary On
Versions: 1 2 3 4 5 6 7 8 9 10 11 12 13 14 15 16 17 18 19 20 21 22 23 24
659
FTUS43 KLSX 190520
TAFSTL
TAF
KSTL 190520Z 1906/2012 31013G23KT P6SM OVC045
     FM191100 33010G18KT P6SM SCT015 OVC025
     FM191600 35009KT P6SM SCT025
     FM192100 35008KT P6SM FEW250
     FM200400 03004KT P6SM SKC=

USA.gov is the U.S. government's official web portal to all federal, state and local government web resources and services.